sensor_id;sensor_type;location;lat;lon;timestamp;temperature;humidity
19974;DHT22;10148;47.694;9.442;2022-12-18T00:01:27;-3.80;99.90
19974;DHT22;10148;47.694;9.442;2022-12-18T00:03:54;-3.80;99.90
19974;DHT22;10148;47.694;9.442;2022-12-18T00:06:21;-3.80;99.90
19974;DHT22;10148;47.694;9.442;2022-12-18T00:08:47;-3.80;99.90
19974;DHT22;10148;47.694;9.442;2022-12-18T00:11:18;-3.80;99.90
19974;DHT22;10148;47.694;9.442;2022-12-18T00:13:45;-3.80;99.90
19974;DHT22;10148;47.694;9.442;2022-12-18T00:16:13;-3.70;99.90
19974;DHT22;10148;47.694;9.442;2022-12-18T00:18:39;-3.70;99.90
19974;DHT22;10148;47.694;9.442;2022-12-18T00:21:08;-3.70;99.90
19974;DHT22;10148;47.694;9.442;2022-12-18T00:23:35;-3.70;99.90
19974;DHT22;10148;47.694;9.442;2022-12-18T00:26:02;-3.70;99.90
19974;DHT22;10148;47.694;9.442;2022-12-18T00:28:28;-3.70;99.90
19974;DHT22;10148;47.694;9.442;2022-12-18T00:31:04;-3.70;99.90
19974;DHT22;10148;47.694;9.442;2022-12-18T00:33:30;-3.60;99.90
19974;DHT22;10148;47.694;9.442;2022-12-18T00:36:07;-3.60;99.90
19974;DHT22;10148;47.694;9.442;2022-12-18T00:38:34;-3.60;99.90
19974;DHT22;10148;47.694;9.442;2022-12-18T00:41:00;-3.50;99.90
19974;DHT22;10148;47.694;9.442;2022-12-18T00:43:26;-3.50;99.90
19974;DHT22;10148;47.694;9.442;2022-12-18T00:45:52;-3.50;99.90
19974;DHT22;10148;47.694;9.442;2022-12-18T00:48:17;-3.50;99.90
19974;DHT22;10148;47.694;9.442;2022-12-18T00:50:43;-3.50;99.90
19974;DHT22;10148;47.694;9.442;2022-12-18T00:53:10;-3.50;99.90
19974;DHT22;10148;47.694;9.442;2022-12-18T00:55:37;-3.50;99.90
19974;DHT22;10148;47.694;9.442;2022-12-18T00:58:04;-3.50;99.90
19974;DHT22;10148;47.694;9.442;2022-12-18T01:00:29;-3.50;99.90
19974;DHT22;10148;47.694;9.442;2022-12-18T01:02:55;-3.50;99.90
19974;DHT22;10148;47.694;9.442;2022-12-18T01:05:20;-3.50;99.90
19974;DHT22;10148;47.694;9.442;2022-12-18T01:07:46;-3.50;99.90
19974;DHT22;10148;47.694;9.442;2022-12-18T01:10:12;-3.50;99.90
19974;DHT22;10148;47.694;9.442;2022-12-18T01:12:38;-3.50;99.90
19974;DHT22;10148;47.694;9.442;2022-12-18T01:15:05;-3.60;99.90
19974;DHT22;10148;47.694;9.442;2022-12-18T01:17:31;-3.50;99.90
19974;DHT22;10148;47.694;9.442;2022-12-18T01:19:56;-3.50;99.90
19974;DHT22;10148;47.694;9.442;2022-12-18T01:22:22;-3.50;99.90
19974;DHT22;10148;47.694;9.442;2022-12-18T01:24:47;-3.50;99.90
19974;DHT22;10148;47.694;9.442;2022-12-18T01:27:13;-3.60;99.90
19974;DHT22;10148;47.694;9.442;2022-12-18T01:29:39;-3.60;99.90
19974;DHT22;10148;47.694;9.442;2022-12-18T01:32:04;-3.60;99.90
19974;DHT22;10148;47.694;9.442;2022-12-18T01:34:30;-3.60;99.90
19974;DHT22;10148;47.694;9.442;2022-12-18T01:36:55;-3.60;99.90
19974;DHT22;10148;47.694;9.442;2022-12-18T01:39:21;-3.60;99.90
19974;DHT22;10148;47.694;9.442;2022-12-18T01:41:46;-3.70;99.90
19974;DHT22;10148;47.694;9.442;2022-12-18T01:49:45;-3.70;99.90
19974;DHT22;10148;47.694;9.442;2022-12-18T01:52:11;-3.70;99.90
19974;DHT22;10148;47.694;9.442;2022-12-18T01:54:37;-3.60;99.90
19974;DHT22;10148;47.694;9.442;2022-12-18T01:57:02;-3.60;99.90
19974;DHT22;10148;47.694;9.442;2022-12-18T01:59:29;-3.60;99.90
19974;DHT22;10148;47.694;9.442;2022-12-18T02:01:56;-3.60;99.90
19974;DHT22;10148;47.694;9.442;2022-12-18T02:04:25;-3.60;99.90
19974;DHT22;10148;47.694;9.442;2022-12-18T02:09:31;-3.60;99.90
19974;DHT22;10148;47.694;9.442;2022-12-18T02:17:21;-3.60;99.90
19974;DHT22;10148;47.694;9.442;2022-12-18T02:20:16;-3.60;99.90
19974;DHT22;10148;47.694;9.442;2022-12-18T02:23:00;-3.70;99.90
19974;DHT22;10148;47.694;9.442;2022-12-18T02:26:19;-3.70;99.90
19974;DHT22;10148;47.694;9.442;2022-12-18T02:29:08;-3.70;99.90
19974;DHT22;10148;47.694;9.442;2022-12-18T02:31:56;-3.70;99.90
19974;DHT22;10148;47.694;9.442;2022-12-18T02:34:26;-3.70;99.90
19974;DHT22;10148;47.694;9.442;2022-12-18T02:36:54;-3.70;99.90
19974;DHT22;10148;47.694;9.442;2022-12-18T02:39:20;-3.70;99.90
19974;DHT22;10148;47.694;9.442;2022-12-18T02:41:48;-3.70;99.90
19974;DHT22;10148;47.694;9.442;2022-12-18T02:44:14;-3.70;99.90
19974;DHT22;10148;47.694;9.442;2022-12-18T02:46:43;-3.80;99.90
19974;DHT22;10148;47.694;9.442;2022-12-18T02:52:09;-3.80;99.90
19974;DHT22;10148;47.694;9.442;2022-12-18T02:54:54;-3.80;99.90
19974;DHT22;10148;47.694;9.442;2022-12-18T03:00:07;-3.80;99.90
19974;DHT22;10148;47.694;9.442;2022-12-18T03:02:48;-3.80;99.90
19974;DHT22;10148;47.694;9.442;2022-12-18T03:05:22;-3.80;99.90
19974;DHT22;10148;47.694;9.442;2022-12-18T03:08:23;-3.80;99.90
19974;DHT22;10148;47.694;9.442;2022-12-18T03:10:58;-3.80;99.90
19974;DHT22;10148;47.694;9.442;2022-12-18T03:13:31;-3.80;99.90
19974;DHT22;10148;47.694;9.442;2022-12-18T03:15:59;-3.80;99.90
19974;DHT22;10148;47.694;9.442;2022-12-18T03:18:33;-3.80;99.90
19974;DHT22;10148;47.694;9.442;2022-12-18T03:21:03;-3.80;99.90
19974;DHT22;10148;47.694;9.442;2022-12-18T03:23:34;-3.80;99.90
19974;DHT22;10148;47.694;9.442;2022-12-18T03:26:06;-3.80;99.90
19974;DHT22;10148;47.694;9.442;2022-12-18T03:28:36;-3.80;99.90
19974;DHT22;10148;47.694;9.442;2022-12-18T03:31:05;-3.80;99.90
19974;DHT22;10148;47.694;9.442;2022-12-18T03:33:47;-3.80;99.90
19974;DHT22;10148;47.694;9.442;2022-12-18T03:36:16;-3.80;99.90
19974;DHT22;10148;47.694;9.442;2022-12-18T03:38:41;-3.80;99.90
19974;DHT22;10148;47.694;9.442;2022-12-18T03:44:03;-3.90;99.90
19974;DHT22;10148;47.694;9.442;2022-12-18T03:46:35;-3.90;99.90
19974;DHT22;10148;47.694;9.442;2022-12-18T03:49:23;-3.90;99.90
19974;DHT22;10148;47.694;9.442;2022-12-18T03:54:20;-3.90;99.90
19974;DHT22;10148;47.694;9.442;2022-12-18T03:56:50;-3.90;99.90
19974;DHT22;10148;47.694;9.442;2022-12-18T03:59:19;-3.90;99.90
19974;DHT22;10148;47.694;9.442;2022-12-18T04:01:49;-3.90;99.90
19974;DHT22;10148;47.694;9.442;2022-12-18T04:04:17;-3.90;99.90
19974;DHT22;10148;47.694;9.442;2022-12-18T04:06:45;-4.00;99.90
19974;DHT22;10148;47.694;9.442;2022-12-18T04:09:13;-3.90;99.90
19974;DHT22;10148;47.694;9.442;2022-12-18T04:11:40;-3.90;99.90
19974;DHT22;10148;47.694;9.442;2022-12-18T04:14:06;-3.90;99.90
19974;DHT22;10148;47.694;9.442;2022-12-18T04:16:32;-4.00;99.90
19974;DHT22;10148;47.694;9.442;2022-12-18T04:18:57;-4.00;99.90
19974;DHT22;10148;47.694;9.442;2022-12-18T04:21:23;-4.00;99.90
19974;DHT22;10148;47.694;9.442;2022-12-18T04:23:48;-4.00;99.90
19974;DHT22;10148;47.694;9.442;2022-12-18T04:26:14;-4.00;99.90
19974;DHT22;10148;47.694;9.442;2022-12-18T04:28:40;-4.00;99.90
19974;DHT22;10148;47.694;9.442;2022-12-18T04:31:05;-4.00;99.90
19974;DHT22;10148;47.694;9.442;2022-12-18T04:33:31;-4.00;99.90
19974;DHT22;10148;47.694;9.442;2022-12-18T04:35:56;-4.00;99.90
19974;DHT22;10148;47.694;9.442;2022-12-18T04:38:22;-4.00;99.90
19974;DHT22;10148;47.694;9.442;2022-12-18T04:40:47;-4.00;99.90
19974;DHT22;10148;47.694;9.442;2022-12-18T04:43:13;-4.00;99.90
19974;DHT22;10148;47.694;9.442;2022-12-18T04:45:39;-4.00;99.90
19974;DHT22;10148;47.694;9.442;2022-12-18T04:48:04;-4.00;99.90
19974;DHT22;10148;47.694;9.442;2022-12-18T04:50:30;-4.00;99.90
19974;DHT22;10148;47.694;9.442;2022-12-18T04:52:57;-4.10;99.90
19974;DHT22;10148;47.694;9.442;2022-12-18T04:55:22;-4.00;99.90
19974;DHT22;10148;47.694;9.442;2022-12-18T04:57:48;-4.00;99.90
19974;DHT22;10148;47.694;9.442;2022-12-18T05:00:14;-4.00;99.90
19974;DHT22;10148;47.694;9.442;2022-12-18T05:02:40;-4.00;99.90
19974;DHT22;10148;47.694;9.442;2022-12-18T05:05:06;-4.10;99.90
19974;DHT22;10148;47.694;9.442;2022-12-18T05:07:31;-4.10;99.90
19974;DHT22;10148;47.694;9.442;2022-12-18T05:09:57;-4.10;99.90
19974;DHT22;10148;47.694;9.442;2022-12-18T05:12:22;-4.00;99.90
19974;DHT22;10148;47.694;9.442;2022-12-18T05:14:48;-4.00;99.90
19974;DHT22;10148;47.694;9.442;2022-12-18T05:17:13;-4.00;99.90
19974;DHT22;10148;47.694;9.442;2022-12-18T05:19:39;-4.10;99.90
19974;DHT22;10148;47.694;9.442;2022-12-18T05:22:04;-4.10;99.90
19974;DHT22;10148;47.694;9.442;2022-12-18T05:24:30;-4.10;99.90
19974;DHT22;10148;47.694;9.442;2022-12-18T05:26:56;-4.10;99.90
19974;DHT22;10148;47.694;9.442;2022-12-18T05:29:21;-4.10;99.90
19974;DHT22;10148;47.694;9.442;2022-12-18T05:31:47;-4.10;99.90
19974;DHT22;10148;47.694;9.442;2022-12-18T05:34:12;-4.10;99.90
19974;DHT22;10148;47.694;9.442;2022-12-18T05:36:38;-4.10;99.90
19974;DHT22;10148;47.694;9.442;2022-12-18T05:39:03;-4.10;99.90
19974;DHT22;10148;47.694;9.442;2022-12-18T05:41:29;-4.10;99.90
19974;DHT22;10148;47.694;9.442;2022-12-18T05:43:55;-4.10;99.90
19974;DHT22;10148;47.694;9.442;2022-12-18T05:46:20;-4.10;99.90
19974;DHT22;10148;47.694;9.442;2022-12-18T05:48:46;-4.10;99.90
19974;DHT22;10148;47.694;9.442;2022-12-18T05:51:16;-4.10;99.90
19974;DHT22;10148;47.694;9.442;2022-12-18T05:53:43;-4.00;99.90
19974;DHT22;10148;47.694;9.442;2022-12-18T05:56:14;-4.10;99.90
19974;DHT22;10148;47.694;9.442;2022-12-18T05:58:41;-4.10;99.90
19974;DHT22;10148;47.694;9.442;2022-12-18T06:01:12;-4.10;99.90
19974;DHT22;10148;47.694;9.442;2022-12-18T06:03:38;-4.10;99.90
19974;DHT22;10148;47.694;9.442;2022-12-18T06:06:11;-4.10;99.90
19974;DHT22;10148;47.694;9.442;2022-12-18T06:08:37;-4.10;99.90
19974;DHT22;10148;47.694;9.442;2022-12-18T06:11:03;-4.10;99.90
19974;DHT22;10148;47.694;9.442;2022-12-18T06:13:29;-4.10;99.90
19974;DHT22;10148;47.694;9.442;2022-12-18T06:15:54;-4.10;99.90
19974;DHT22;10148;47.694;9.442;2022-12-18T06:18:20;-4.10;99.90
19974;DHT22;10148;47.694;9.442;2022-12-18T06:20:54;-4.10;99.90
19974;DHT22;10148;47.694;9.442;2022-12-18T06:23:20;-4.20;99.90
19974;DHT22;10148;47.694;9.442;2022-12-18T06:25:46;-4.20;99.90
19974;DHT22;10148;47.694;9.442;2022-12-18T06:28:11;-4.20;99.90
19974;DHT22;10148;47.694;9.442;2022-12-18T06:30:37;-4.20;99.90
19974;DHT22;10148;47.694;9.442;2022-12-18T06:33:02;-4.20;99.90
19974;DHT22;10148;47.694;9.442;2022-12-18T06:35:28;-4.20;99.90
19974;DHT22;10148;47.694;9.442;2022-12-18T06:37:53;-4.20;99.90
19974;DHT22;10148;47.694;9.442;2022-12-18T06:40:19;-4.10;99.90
19974;DHT22;10148;47.694;9.442;2022-12-18T06:42:44;-4.10;99.90
19974;DHT22;10148;47.694;9.442;2022-12-18T06:45:10;-4.20;99.90
19974;DHT22;10148;47.694;9.442;2022-12-18T06:47:36;-4.20;99.90
19974;DHT22;10148;47.694;9.442;2022-12-18T06:50:02;-4.20;99.90
19974;DHT22;10148;47.694;9.442;2022-12-18T06:52:28;-4.20;99.90
19974;DHT22;10148;47.694;9.442;2022-12-18T06:54:53;-4.20;99.90
19974;DHT22;10148;47.694;9.442;2022-12-18T06:57:19;-4.20;99.90
19974;DHT22;10148;47.694;9.442;2022-12-18T06:59:45;-4.20;99.90
19974;DHT22;10148;47.694;9.442;2022-12-18T07:02:13;-4.20;99.90
19974;DHT22;10148;47.694;9.442;2022-12-18T07:04:39;-4.20;99.90
19974;DHT22;10148;47.694;9.442;2022-12-18T07:07:04;-4.20;99.90
19974;DHT22;10148;47.694;9.442;2022-12-18T07:09:30;-4.20;99.90
19974;DHT22;10148;47.694;9.442;2022-12-18T07:11:56;-4.20;99.90
19974;DHT22;10148;47.694;9.442;2022-12-18T07:14:21;-4.10;99.90
19974;DHT22;10148;47.694;9.442;2022-12-18T07:16:47;-4.10;99.90
19974;DHT22;10148;47.694;9.442;2022-12-18T07:19:12;-4.10;99.90
19974;DHT22;10148;47.694;9.442;2022-12-18T07:21:38;-4.10;99.90
19974;DHT22;10148;47.694;9.442;2022-12-18T07:24:04;-4.10;99.90
19974;DHT22;10148;47.694;9.442;2022-12-18T07:26:30;-4.10;99.90
19974;DHT22;10148;47.694;9.442;2022-12-18T07:28:56;-4.10;99.90
19974;DHT22;10148;47.694;9.442;2022-12-18T07:31:23;-4.10;99.90
19974;DHT22;10148;47.694;9.442;2022-12-18T07:33:50;-4.10;99.90
19974;DHT22;10148;47.694;9.442;2022-12-18T07:36:16;-4.10;99.90
19974;DHT22;10148;47.694;9.442;2022-12-18T07:38:42;-4.00;99.90
19974;DHT22;10148;47.694;9.442;2022-12-18T07:41:10;-4.00;99.90
19974;DHT22;10148;47.694;9.442;2022-12-18T07:43:37;-4.00;99.90
19974;DHT22;10148;47.694;9.442;2022-12-18T07:46:03;-4.00;99.90
19974;DHT22;10148;47.694;9.442;2022-12-18T07:48:29;-4.00;99.90
19974;DHT22;10148;47.694;9.442;2022-12-18T07:51:02;-4.00;99.90
19974;DHT22;10148;47.694;9.442;2022-12-18T07:53:28;-4.00;99.90
19974;DHT22;10148;47.694;9.442;2022-12-18T07:56:01;-3.90;99.90
19974;DHT22;10148;47.694;9.442;2022-12-18T07:58:28;-3.90;99.90
19974;DHT22;10148;47.694;9.442;2022-12-18T08:00:53;-3.80;99.90
19974;DHT22;10148;47.694;9.442;2022-12-18T08:03:19;-3.80;99.90
19974;DHT22;10148;47.694;9.442;2022-12-18T08:05:45;-3.70;99.90
19974;DHT22;10148;47.694;9.442;2022-12-18T08:08:11;-3.70;99.90
19974;DHT22;10148;47.694;9.442;2022-12-18T08:10:37;-3.70;99.90
19974;DHT22;10148;47.694;9.442;2022-12-18T08:13:03;-3.70;99.90
19974;DHT22;10148;47.694;9.442;2022-12-18T08:15:28;-3.70;99.90
19974;DHT22;10148;47.694;9.442;2022-12-18T08:17:56;-3.60;99.90
19974;DHT22;10148;47.694;9.442;2022-12-18T08:20:22;-3.60;99.90
19974;DHT22;10148;47.694;9.442;2022-12-18T08:22:48;-3.50;99.90
19974;DHT22;10148;47.694;9.442;2022-12-18T08:25:13;-3.50;99.90
19974;DHT22;10148;47.694;9.442;2022-12-18T08:27:39;-3.50;99.90
19974;DHT22;10148;47.694;9.442;2022-12-18T08:30:05;-3.50;99.90
19974;DHT22;10148;47.694;9.442;2022-12-18T08:32:31;-3.50;99.90
19974;DHT22;10148;47.694;9.442;2022-12-18T08:34:58;-3.50;99.90
19974;DHT22;10148;47.694;9.442;2022-12-18T08:37:24;-3.50;99.90
19974;DHT22;10148;47.694;9.442;2022-12-18T08:39:50;-3.50;99.90
19974;DHT22;10148;47.694;9.442;2022-12-18T08:42:15;-3.50;99.90
19974;DHT22;10148;47.694;9.442;2022-12-18T08:45:00;-3.40;99.90
19974;DHT22;10148;47.694;9.442;2022-12-18T08:47:25;-3.40;99.90
19974;DHT22;10148;47.694;9.442;2022-12-18T08:49:51;-3.40;99.90
19974;DHT22;10148;47.694;9.442;2022-12-18T08:52:17;-3.40;99.90
19974;DHT22;10148;47.694;9.442;2022-12-18T08:54:42;-3.30;99.90
19974;DHT22;10148;47.694;9.442;2022-12-18T08:57:08;-3.30;99.90
19974;DHT22;10148;47.694;9.442;2022-12-18T08:59:33;-3.30;99.90
19974;DHT22;10148;47.694;9.442;2022-12-18T09:01:59;-3.30;99.90
19974;DHT22;10148;47.694;9.442;2022-12-18T09:04:24;-3.30;99.90
19974;DHT22;10148;47.694;9.442;2022-12-18T09:06:50;-3.30;99.90
19974;DHT22;10148;47.694;9.442;2022-12-18T09:09:15;-3.20;99.90
19974;DHT22;10148;47.694;9.442;2022-12-18T09:11:41;-3.10;99.90
19974;DHT22;10148;47.694;9.442;2022-12-18T09:14:07;-3.10;99.90
19974;DHT22;10148;47.694;9.442;2022-12-18T09:16:33;-3.20;99.90
19974;DHT22;10148;47.694;9.442;2022-12-18T09:19:01;-3.20;99.90
19974;DHT22;10148;47.694;9.442;2022-12-18T09:21:31;-3.10;99.90
19974;DHT22;10148;47.694;9.442;2022-12-18T09:23:57;-3.10;99.90
19974;DHT22;10148;47.694;9.442;2022-12-18T09:26:24;-3.10;99.90
19974;DHT22;10148;47.694;9.442;2022-12-18T09:28:50;-3.00;99.90
19974;DHT22;10148;47.694;9.442;2022-12-18T09:31:17;-3.00;99.90
19974;DHT22;10148;47.694;9.442;2022-12-18T09:33:43;-3.00;99.90
19974;DHT22;10148;47.694;9.442;2022-12-18T09:36:12;-3.00;99.90
19974;DHT22;10148;47.694;9.442;2022-12-18T09:38:37;-2.90;99.90
19974;DHT22;10148;47.694;9.442;2022-12-18T09:44:01;-2.90;99.90
19974;DHT22;10148;47.694;9.442;2022-12-18T09:46:32;-2.90;99.90
19974;DHT22;10148;47.694;9.442;2022-12-18T09:49:01;-2.80;99.90
19974;DHT22;10148;47.694;9.442;2022-12-18T09:51:32;-2.80;99.90
19974;DHT22;10148;47.694;9.442;2022-12-18T09:54:05;-2.80;99.90
19974;DHT22;10148;47.694;9.442;2022-12-18T09:56:36;-2.80;99.90
19974;DHT22;10148;47.694;9.442;2022-12-18T09:59:04;-2.80;99.90
19974;DHT22;10148;47.694;9.442;2022-12-18T10:01:31;-2.80;99.90
19974;DHT22;10148;47.694;9.442;2022-12-18T10:03:57;-2.80;99.90
19974;DHT22;10148;47.694;9.442;2022-12-18T10:12:07;-2.60;99.90
19974;DHT22;10148;47.694;9.442;2022-12-18T10:20:18;-2.50;99.90
19974;DHT22;10148;47.694;9.442;2022-12-18T10:28:08;-2.50;99.90
19974;DHT22;10148;47.694;9.442;2022-12-18T10:30:35;-2.40;99.90
19974;DHT22;10148;47.694;9.442;2022-12-18T10:33:02;-2.40;99.90
19974;DHT22;10148;47.694;9.442;2022-12-18T10:35:28;-2.40;99.90
19974;DHT22;10148;47.694;9.442;2022-12-18T10:40:49;-2.30;99.90
19974;DHT22;10148;47.694;9.442;2022-12-18T10:43:19;-2.30;99.90
19974;DHT22;10148;47.694;9.442;2022-12-18T10:45:59;-2.30;99.90
19974;DHT22;10148;47.694;9.442;2022-12-18T10:48:25;-2.40;99.90
19974;DHT22;10148;47.694;9.442;2022-12-18T10:50:52;-2.30;99.90
19974;DHT22;10148;47.694;9.442;2022-12-18T10:53:29;-2.30;99.90
19974;DHT22;10148;47.694;9.442;2022-12-18T10:55:57;-2.30;99.90
19974;DHT22;10148;47.694;9.442;2022-12-18T10:58:27;-2.20;99.90
19974;DHT22;10148;47.694;9.442;2022-12-18T11:03:40;-2.10;99.90
19974;DHT22;10148;47.694;9.442;2022-12-18T11:06:11;-2.10;99.90
19974;DHT22;10148;47.694;9.442;2022-12-18T11:08:37;-2.10;99.90
19974;DHT22;10148;47.694;9.442;2022-12-18T11:11:14;-2.10;99.90
19974;DHT22;10148;47.694;9.442;2022-12-18T11:13:51;-2.00;99.90
19974;DHT22;10148;47.694;9.442;2022-12-18T11:16:19;-2.00;99.90
19974;DHT22;10148;47.694;9.442;2022-12-18T11:18:45;-1.90;99.90
19974;DHT22;10148;47.694;9.442;2022-12-18T11:21:12;-1.90;99.90
19974;DHT22;10148;47.694;9.442;2022-12-18T11:23:49;-1.90;99.90
19974;DHT22;10148;47.694;9.442;2022-12-18T11:26:15;-1.80;99.90
19974;DHT22;10148;47.694;9.442;2022-12-18T11:28:47;-1.80;99.90
19974;DHT22;10148;47.694;9.442;2022-12-18T11:31:27;-1.90;99.90
19974;DHT22;10148;47.694;9.442;2022-12-18T11:34:19;-1.80;99.90
19974;DHT22;10148;47.694;9.442;2022-12-18T11:36:46;-1.90;99.90
19974;DHT22;10148;47.694;9.442;2022-12-18T11:41:54;-1.90;99.90
19974;DHT22;10148;47.694;9.442;2022-12-18T11:44:57;-1.80;99.90
19974;DHT22;10148;47.694;9.442;2022-12-18T11:47:48;-1.80;99.90
19974;DHT22;10148;47.694;9.442;2022-12-18T11:50:25;-1.80;99.90
19974;DHT22;10148;47.694;9.442;2022-12-18T11:52:51;-1.80;99.90
19974;DHT22;10148;47.694;9.442;2022-12-18T11:55:39;-1.80;99.90
19974;DHT22;10148;47.694;9.442;2022-12-18T12:06:40;-1.80;99.90
19974;DHT22;10148;47.694;9.442;2022-12-18T12:09:33;-1.80;99.90
19974;DHT22;10148;47.694;9.442;2022-12-18T12:15:17;-1.80;99.90
19974;DHT22;10148;47.694;9.442;2022-12-18T12:18:13;-1.80;99.90
19974;DHT22;10148;47.694;9.442;2022-12-18T12:20:53;-1.80;99.90
19974;DHT22;10148;47.694;9.442;2022-12-18T12:23:35;-1.90;99.90
19974;DHT22;10148;47.694;9.442;2022-12-18T12:26:12;-2.00;99.90
19974;DHT22;10148;47.694;9.442;2022-12-18T12:29:07;-1.90;99.90
19974;DHT22;10148;47.694;9.442;2022-12-18T12:34:23;-1.90;99.90
19974;DHT22;10148;47.694;9.442;2022-12-18T12:37:07;-1.90;99.90
19974;DHT22;10148;47.694;9.442;2022-12-18T12:39:40;-1.80;99.90
19974;DHT22;10148;47.694;9.442;2022-12-18T12:42:15;-1.80;99.90
19974;DHT22;10148;47.694;9.442;2022-12-18T12:45:02;-1.80;99.90
19974;DHT22;10148;47.694;9.442;2022-12-18T12:47:32;-1.80;99.90
19974;DHT22;10148;47.694;9.442;2022-12-18T12:50:01;-1.70;99.90
19974;DHT22;10148;47.694;9.442;2022-12-18T12:52:41;-1.80;99.90
19974;DHT22;10148;47.694;9.442;2022-12-18T12:55:17;-1.90;99.90
19974;DHT22;10148;47.694;9.442;2022-12-18T12:57:50;-1.90;99.90
19974;DHT22;10148;47.694;9.442;2022-12-18T13:00:18;-1.90;99.90
19974;DHT22;10148;47.694;9.442;2022-12-18T13:03:03;-1.80;99.90
19974;DHT22;10148;47.694;9.442;2022-12-18T13:05:46;-1.80;99.90
19974;DHT22;10148;47.694;9.442;2022-12-18T13:08:25;-1.70;99.90
19974;DHT22;10148;47.694;9.442;2022-12-18T13:10:53;-1.70;99.90
19974;DHT22;10148;47.694;9.442;2022-12-18T13:13:50;-1.70;99.90
19974;DHT22;10148;47.694;9.442;2022-12-18T13:16:19;-1.70;99.90
19974;DHT22;10148;47.694;9.442;2022-12-18T13:18:52;-1.70;99.90
19974;DHT22;10148;47.694;9.442;2022-12-18T13:21:32;-1.70;99.90
19974;DHT22;10148;47.694;9.442;2022-12-18T13:24:15;-1.70;99.90
19974;DHT22;10148;47.694;9.442;2022-12-18T13:26:46;-1.70;99.90
19974;DHT22;10148;47.694;9.442;2022-12-18T13:32:19;-1.60;99.90
19974;DHT22;10148;47.694;9.442;2022-12-18T13:34:45;-1.60;99.90
19974;DHT22;10148;47.694;9.442;2022-12-18T13:37:39;-1.60;99.90
19974;DHT22;10148;47.694;9.442;2022-12-18T13:45:50;-1.70;99.90
19974;DHT22;10148;47.694;9.442;2022-12-18T13:48:25;-1.60;99.90
19974;DHT22;10148;47.694;9.442;2022-12-18T13:51:04;-1.70;99.90
19974;DHT22;10148;47.694;9.442;2022-12-18T13:53:36;-1.70;99.90
19974;DHT22;10148;47.694;9.442;2022-12-18T13:56:03;-1.70;99.90
19974;DHT22;10148;47.694;9.442;2022-12-18T13:58:29;-1.80;99.90
19974;DHT22;10148;47.694;9.442;2022-12-18T14:00:55;-1.80;99.90
19974;DHT22;10148;47.694;9.442;2022-12-18T14:03:27;-1.80;99.90
19974;DHT22;10148;47.694;9.442;2022-12-18T14:06:05;-1.80;99.90
19974;DHT22;10148;47.694;9.442;2022-12-18T14:08:39;-1.80;99.90
19974;DHT22;10148;47.694;9.442;2022-12-18T14:11:06;-1.80;99.90
19974;DHT22;10148;47.694;9.442;2022-12-18T14:13:35;-1.80;99.90
19974;DHT22;10148;47.694;9.442;2022-12-18T14:16:04;-1.80;99.90
19974;DHT22;10148;47.694;9.442;2022-12-18T14:18:53;-1.80;99.90
19974;DHT22;10148;47.694;9.442;2022-12-18T14:21:26;-1.70;99.90
19974;DHT22;10148;47.694;9.442;2022-12-18T14:24:16;-1.70;99.90
19974;DHT22;10148;47.694;9.442;2022-12-18T14:26:42;-1.70;99.90
19974;DHT22;10148;47.694;9.442;2022-12-18T14:29:29;-1.80;99.90
19974;DHT22;10148;47.694;9.442;2022-12-18T14:32:15;-1.80;99.90
19974;DHT22;10148;47.694;9.442;2022-12-18T14:34:48;-1.80;99.90
19974;DHT22;10148;47.694;9.442;2022-12-18T14:37:17;-1.90;99.90
19974;DHT22;10148;47.694;9.442;2022-12-18T14:39:59;-1.90;99.90
19974;DHT22;10148;47.694;9.442;2022-12-18T14:42:29;-1.90;99.90
19974;DHT22;10148;47.694;9.442;2022-12-18T14:47:59;-1.90;99.90
19974;DHT22;10148;47.694;9.442;2022-12-18T14:50:24;-1.90;99.90
19974;DHT22;10148;47.694;9.442;2022-12-18T14:52:50;-1.90;99.90
19974;DHT22;10148;47.694;9.442;2022-12-18T14:55:17;-1.90;99.90
19974;DHT22;10148;47.694;9.442;2022-12-18T14:57:44;-1.90;99.90
19974;DHT22;10148;47.694;9.442;2022-12-18T15:00:18;-2.00;99.90
19974;DHT22;10148;47.694;9.442;2022-12-18T15:02:46;-2.00;99.90
19974;DHT22;10148;47.694;9.442;2022-12-18T15:05:18;-2.00;99.90
19974;DHT22;10148;47.694;9.442;2022-12-18T15:07:50;-2.00;99.90
19974;DHT22;10148;47.694;9.442;2022-12-18T15:10:30;-2.00;99.90
19974;DHT22;10148;47.694;9.442;2022-12-18T15:20:50;-2.10;99.90
19974;DHT22;10148;47.694;9.442;2022-12-18T15:23:45;-2.10;99.90
19974;DHT22;10148;47.694;9.442;2022-12-18T15:26:13;-2.10;99.90
19974;DHT22;10148;47.694;9.442;2022-12-18T15:28:47;-2.20;99.90
19974;DHT22;10148;47.694;9.442;2022-12-18T15:33:41;-2.20;99.90
19974;DHT22;10148;47.694;9.442;2022-12-18T15:36:12;-2.20;99.90
19974;DHT22;10148;47.694;9.442;2022-12-18T15:38:38;-2.20;99.90
19974;DHT22;10148;47.694;9.442;2022-12-18T15:41:22;-2.20;99.90
19974;DHT22;10148;47.694;9.442;2022-12-18T15:43:49;-2.20;99.90
19974;DHT22;10148;47.694;9.442;2022-12-18T15:46:18;-2.20;99.90
19974;DHT22;10148;47.694;9.442;2022-12-18T15:48:46;-2.20;99.90
19974;DHT22;10148;47.694;9.442;2022-12-18T15:51:18;-2.20;99.90
19974;DHT22;10148;47.694;9.442;2022-12-18T15:53:46;-2.20;99.90
19974;DHT22;10148;47.694;9.442;2022-12-18T15:56:13;-2.30;99.90
19974;DHT22;10148;47.694;9.442;2022-12-18T15:58:58;-2.30;99.90
19974;DHT22;10148;47.694;9.442;2022-12-18T16:01:26;-2.30;99.90
19974;DHT22;10148;47.694;9.442;2022-12-18T16:03:52;-2.40;99.90
19974;DHT22;10148;47.694;9.442;2022-12-18T16:06:18;-2.40;99.90
19974;DHT22;10148;47.694;9.442;2022-12-18T16:08:44;-2.40;99.90
19974;DHT22;10148;47.694;9.442;2022-12-18T16:11:30;-2.50;99.90
19974;DHT22;10148;47.694;9.442;2022-12-18T16:16:50;-2.50;99.90
19974;DHT22;10148;47.694;9.442;2022-12-18T16:19:17;-2.50;99.90
19974;DHT22;10148;47.694;9.442;2022-12-18T16:21:43;-2.50;99.90
19974;DHT22;10148;47.694;9.442;2022-12-18T16:24:16;-2.50;99.90
19974;DHT22;10148;47.694;9.442;2022-12-18T16:26:43;-2.50;99.90
19974;DHT22;10148;47.694;9.442;2022-12-18T16:29:09;-2.50;99.90
19974;DHT22;10148;47.694;9.442;2022-12-18T16:31:35;-2.40;99.90
19974;DHT22;10148;47.694;9.442;2022-12-18T16:36:36;-2.40;99.90
19974;DHT22;10148;47.694;9.442;2022-12-18T16:39:01;-2.40;99.90
19974;DHT22;10148;47.694;9.442;2022-12-18T16:41:27;-2.40;99.90
19974;DHT22;10148;47.694;9.442;2022-12-18T16:43:56;-2.50;99.90
19974;DHT22;10148;47.694;9.442;2022-12-18T16:46:22;-2.60;99.90
19974;DHT22;10148;47.694;9.442;2022-12-18T16:48:47;-2.60;99.90
19974;DHT22;10148;47.694;9.442;2022-12-18T16:51:13;-2.60;99.90
19974;DHT22;10148;47.694;9.442;2022-12-18T16:53:39;-2.60;99.90
19974;DHT22;10148;47.694;9.442;2022-12-18T16:56:04;-2.60;99.90
19974;DHT22;10148;47.694;9.442;2022-12-18T16:58:30;-2.60;99.90
19974;DHT22;10148;47.694;9.442;2022-12-18T17:00:55;-2.60;99.90
19974;DHT22;10148;47.694;9.442;2022-12-18T17:03:21;-2.60;99.90
19974;DHT22;10148;47.694;9.442;2022-12-18T17:05:46;-2.60;99.90
19974;DHT22;10148;47.694;9.442;2022-12-18T17:08:12;-2.60;99.90
19974;DHT22;10148;47.694;9.442;2022-12-18T17:10:37;-2.50;99.90
19974;DHT22;10148;47.694;9.442;2022-12-18T17:13:03;-2.50;99.90
19974;DHT22;10148;47.694;9.442;2022-12-18T17:15:28;-2.50;99.90
19974;DHT22;10148;47.694;9.442;2022-12-18T17:17:54;-2.50;99.90
19974;DHT22;10148;47.694;9.442;2022-12-18T17:20:20;-2.50;99.90